Time;durP1;ratioP1;P1;durP2;ratioP2;P2;SDS_P1;SDS_P2;PMS_P1;PMS_P2;Temp;Humidity;BMP_temperature;BMP_pressure;BME280_temperature;BME280_humidity;BME280_pressure;Samples;Min_cycle;Max_cycle;Signal;HPM_P1;HPM_P2
2021/05/05 00:02:22;;;;;;;7.22;3.92;;;;;;;;;;4848952;29;20085;-80
2021/05/05 00:04:48;;;;;;;7.00;4.15;;;;;;;;;;4865424;29;20034;-80
2021/05/05 00:07:15;;;;;;;7.47;3.92;;;;;;;;;;4865098;29;20466;-80
2021/05/05 00:09:41;;;;;;;5.97;4.10;;;;;;;;;;4848118;29;20061;-80
2021/05/05 00:12:07;;;;;;;9.18;4.28;;;;;;;;;;4865327;29;20054;-80
2021/05/05 00:14:33;;;;;;;4.57;3.92;;;;;;;;;;4865754;29;20025;-80
2021/05/05 00:16:59;;;;;;;6.00;4.07;;;;;;;;;;4865065;29;20090;-80
2021/05/05 00:19:25;;;;;;;6.55;4.38;;;;;;;;;;4865465;29;20506;-80
2021/05/05 00:21:52;;;;;;;6.68;3.83;;;;;;;;;;4871792;29;20067;-80
2021/05/05 00:24:18;;;;;;;8.55;4.18;;;;;;;;;;4883589;29;20029;-80
2021/05/05 00:26:44;;;;;;;9.68;4.65;;;;;;;;;;4848355;29;20601;-80
2021/05/05 00:29:10;;;;;;;5.30;4.32;;;;;;;;;;4864916;29;20040;-80
2021/05/05 00:31:37;;;;;;;6.30;4.55;;;;;;;;;;4864170;29;20082;-80
2021/05/05 00:34:03;;;;;;;11.02;4.53;;;;;;;;;;4848632;29;20055;-80
2021/05/05 00:36:29;;;;;;;7.68;4.70;;;;;;;;;;4847969;29;20227;-80
2021/05/05 00:38:55;;;;;;;6.65;4.55;;;;;;;;;;4865212;29;20030;-80
2021/05/05 00:41:22;;;;;;;11.95;4.80;;;;;;;;;;4863648;29;20025;-80
2021/05/05 00:43:48;;;;;;;12.02;5.25;;;;;;;;;;4865155;29;20029;-80
2021/05/05 00:46:14;;;;;;;6.50;4.07;;;;;;;;;;4848235;29;20485;-80
2021/05/05 00:48:40;;;;;;;6.93;4.13;;;;;;;;;;4865378;29;20549;-80
2021/05/05 00:51:07;;;;;;;9.02;4.13;;;;;;;;;;4864644;29;20085;-80
2021/05/05 00:53:34;;;;;;;9.35;4.32;;;;;;;;;;4873123;29;20029;-80
2021/05/05 00:56:00;;;;;;;4.75;3.42;;;;;;;;;;4883406;29;20119;-80
2021/05/05 00:58:26;;;;;;;8.88;4.03;;;;;;;;;;4883102;29;20025;-80
2021/05/05 01:00:53;;;;;;;7.57;3.80;;;;;;;;;;4882786;29;20029;-80
2021/05/05 01:03:20;;;;;;;9.25;4.00;;;;;;;;;;4883318;29;20029;-80
2021/05/05 01:05:46;;;;;;;4.38;3.22;;;;;;;;;;4882686;29;20025;-80
2021/05/05 01:08:13;;;;;;;4.95;3.72;;;;;;;;;;4883095;29;20029;-80
2021/05/05 01:10:39;;;;;;;5.28;3.50;;;;;;;;;;4882740;29;20063;-80
2021/05/05 01:13:05;;;;;;;7.97;3.33;;;;;;;;;;4883354;29;20029;-80
2021/05/05 01:15:31;;;;;;;6.63;3.05;;;;;;;;;;4882789;29;20064;-80
2021/05/05 01:17:57;;;;;;;6.18;2.38;;;;;;;;;;4882498;29;20037;-79
2021/05/05 01:20:27;;;;;;;8.98;3.17;;;;;;;;;;4883083;29;20076;-80
2021/05/05 01:22:53;;;;;;;3.58;2.63;;;;;;;;;;4867160;29;20030;-80
2021/05/05 01:25:19;;;;;;;3.95;2.70;;;;;;;;;;4854311;29;20025;-79
2021/05/05 01:27:45;;;;;;;5.40;2.95;;;;;;;;;;4882345;29;20493;-80
2021/05/05 01:30:15;;;;;;;4.63;2.47;;;;;;;;;;4882386;29;20029;-80
2021/05/05 01:32:42;;;;;;;7.00;2.80;;;;;;;;;;4882335;29;20029;-80
2021/05/05 01:35:11;;;;;;;6.50;2.42;;;;;;;;;;4882738;29;20369;-80
2021/05/05 01:37:37;;;;;;;8.60;2.78;;;;;;;;;;4881974;29;20120;-80
2021/05/05 01:40:04;;;;;;;4.07;2.55;;;;;;;;;;4882798;29;20025;-80
2021/05/05 01:42:31;;;;;;;4.20;2.28;;;;;;;;;;4865512;29;20044;-80
2021/05/05 01:44:58;;;;;;;3.65;2.40;;;;;;;;;;4882245;29;20033;-80
2021/05/05 01:47:24;;;;;;;5.68;2.75;;;;;;;;;;4882635;29;20033;-80
2021/05/05 01:49:50;;;;;;;4.97;2.30;;;;;;;;;;4883312;29;20028;-80
2021/05/05 01:52:17;;;;;;;3.67;2.47;;;;;;;;;;4865619;29;20025;-80
2021/05/05 01:54:43;;;;;;;4.03;2.38;;;;;;;;;;4864674;29;20053;-80
2021/05/05 01:57:28;;;;;;;4.70;2.28;;;;;;;;;;4846592;29;20485;-80
2021/05/05 01:59:54;;;;;;;6.15;2.70;;;;;;;;;;4864061;29;20033;-80
2021/05/05 02:02:20;;;;;;;5.57;2.72;;;;;;;;;;4863208;29;20497;-80
2021/05/05 02:04:46;;;;;;;3.85;2.22;;;;;;;;;;4864328;29;20397;-80
2021/05/05 02:07:12;;;;;;;3.00;2.38;;;;;;;;;;4863873;29;20037;-80
2021/05/05 02:09:38;;;;;;;2.35;2.13;;;;;;;;;;4864245;29;20105;-80
2021/05/05 02:12:04;;;;;;;5.80;2.45;;;;;;;;;;4847424;29;20037;-80
2021/05/05 02:14:31;;;;;;;3.95;2.67;;;;;;;;;;4863501;29;20034;-80
2021/05/05 02:16:59;;;;;;;3.50;1.85;;;;;;;;;;4863235;29;20029;-80
2021/05/05 02:19:26;;;;;;;4.80;2.10;;;;;;;;;;4863013;29;20458;-80
2021/05/05 02:21:52;;;;;;;2.15;1.60;;;;;;;;;;4853236;29;20029;-79
2021/05/05 02:24:18;;;;;;;3.50;2.13;;;;;;;;;;4865068;29;20029;-80
2021/05/05 02:26:45;;;;;;;3.95;1.75;;;;;;;;;;4847394;29;20030;-80
2021/05/05 02:29:11;;;;;;;3.17;1.83;;;;;;;;;;4847413;29;20485;-80
2021/05/05 02:31:37;;;;;;;4.10;1.77;;;;;;;;;;4867008;29;20033;-80
2021/05/05 02:34:04;;;;;;;4.97;2.00;;;;;;;;;;4867160;29;20033;-80
2021/05/05 02:36:31;;;;;;;2.55;1.50;;;;;;;;;;4866937;29;20162;-80
2021/05/05 02:38:57;;;;;;;3.28;1.95;;;;;;;;;;4867639;29;20509;-80
2021/05/05 02:41:23;;;;;;;5.25;1.88;;;;;;;;;;4850259;29;20089;-80
2021/05/05 02:43:50;;;;;;;4.18;1.60;;;;;;;;;;4851105;29;20037;-80
2021/05/05 02:46:16;;;;;;;2.42;1.80;;;;;;;;;;4867030;29;20438;-80
2021/05/05 02:48:42;;;;;;;3.38;1.60;;;;;;;;;;4850186;29;20386;-80
2021/05/05 02:51:08;;;;;;;3.08;1.50;;;;;;;;;;4866829;29;20033;-80
2021/05/05 02:53:34;;;;;;;6.80;1.80;;;;;;;;;;4865435;29;20034;-80
2021/05/05 02:56:00;;;;;;;6.45;1.75;;;;;;;;;;4867287;29;20511;-80
2021/05/05 02:58:27;;;;;;;3.88;1.90;;;;;;;;;;4866570;29;20108;-80
2021/05/05 03:00:53;;;;;;;4.53;1.60;;;;;;;;;;4849810;29;20548;-80
2021/05/05 03:03:19;;;;;;;3.50;1.65;;;;;;;;;;4865552;29;20036;-80
2021/05/05 03:05:45;;;;;;;2.58;1.30;;;;;;;;;;4866633;29;20081;-80
2021/05/05 03:08:13;;;;;;;4.72;1.20;;;;;;;;;;4866362;29;20038;-80
2021/05/05 03:10:39;;;;;;;2.53;1.40;;;;;;;;;;4866850;29;20041;-80
2021/05/05 03:13:05;;;;;;;1.90;0.88;;;;;;;;;;4850100;29;20040;-80
2021/05/05 03:15:31;;;;;;;1.73;1.00;;;;;;;;;;4866272;29;20484;-80
2021/05/05 03:17:58;;;;;;;5.45;1.30;;;;;;;;;;4866016;29;20082;-80
2021/05/05 03:20:24;;;;;;;4.18;1.13;;;;;;;;;;4866295;29;20042;-80
2021/05/05 03:22:50;;;;;;;4.57;1.20;;;;;;;;;;4881481;29;20061;-80
2021/05/05 03:25:16;;;;;;;3.78;0.95;;;;;;;;;;4877633;29;20026;-80
2021/05/05 03:27:42;;;;;;;5.28;0.90;;;;;;;;;;4865841;29;20030;-80
2021/05/05 03:30:09;;;;;;;2.00;1.00;;;;;;;;;;4866424;29;20508;-80
2021/05/05 03:32:35;;;;;;;6.15;1.00;;;;;;;;;;4866321;29;20041;-80
2021/05/05 03:35:01;;;;;;;1.48;0.85;;;;;;;;;;4866643;29;20029;-80
2021/05/05 03:37:27;;;;;;;1.35;0.98;;;;;;;;;;4849738;29;20046;-80
2021/05/05 03:39:54;;;;;;;2.60;1.00;;;;;;;;;;4850042;29;20405;-79
2021/05/05 03:42:21;;;;;;;3.05;0.82;;;;;;;;;;4864615;29;20051;-80
2021/05/05 03:44:47;;;;;;;3.88;1.00;;;;;;;;;;4848893;29;20153;-80
2021/05/05 03:47:13;;;;;;;2.35;0.80;;;;;;;;;;4865700;29;20029;-79
2021/05/05 03:49:39;;;;;;;2.67;1.00;;;;;;;;;;4848904;29;20066;-80
2021/05/05 03:52:05;;;;;;;2.92;1.08;;;;;;;;;;4865488;29;20033;-79
2021/05/05 03:54:31;;;;;;;1.50;0.93;;;;;;;;;;4881885;29;20053;-80
2021/05/05 03:56:57;;;;;;;3.83;1.00;;;;;;;;;;4866966;29;20610;-80
2021/05/05 03:59:24;;;;;;;1.20;0.77;;;;;;;;;;4884148;29;20026;-80
2021/05/05 04:01:50;;;;;;;2.03;0.88;;;;;;;;;;4865691;29;20477;-77
2021/05/05 04:04:16;;;;;;;1.77;0.90;;;;;;;;;;4882058;29;20021;-77
2021/05/05 04:06:42;;;;;;;1.92;0.95;;;;;;;;;;4882497;29;20037;-77
2021/05/05 04:09:08;;;;;;;2.28;1.00;;;;;;;;;;4882112;29;20040;-77
2021/05/05 04:11:34;;;;;;;2.83;1.02;;;;;;;;;;4881858;29;20488;-77
2021/05/05 04:14:00;;;;;;;2.53;1.00;;;;;;;;;;4882189;29;20033;-77
2021/05/05 04:16:26;;;;;;;3.40;0.90;;;;;;;;;;4864354;29;20037;-76
2021/05/05 04:18:53;;;;;;;1.98;1.20;;;;;;;;;;4880917;29;20041;-79
2021/05/05 04:21:20;;;;;;;3.30;1.08;;;;;;;;;;4861447;29;20036;-80
2021/05/05 04:23:46;;;;;;;2.85;0.82;;;;;;;;;;4847599;29;20036;-78
2021/05/05 04:26:12;;;;;;;2.67;1.10;;;;;;;;;;4879266;29;20033;-81
2021/05/05 04:28:38;;;;;;;1.70;1.00;;;;;;;;;;4884009;29;20037;-81
2021/05/05 04:31:05;;;;;;;2.15;0.98;;;;;;;;;;4883724;29;20056;-81
2021/05/05 04:33:31;;;;;;;1.42;1.02;;;;;;;;;;4866617;29;20036;-81
2021/05/05 04:35:57;;;;;;;18.48;2.65;;;;;;;;;;4867931;29;20029;-82
2021/05/05 04:38:24;;;;;;;2.05;1.15;;;;;;;;;;4868087;29;20665;-83
2021/05/05 04:40:50;;;;;;;2.17;0.98;;;;;;;;;;4884602;29;20036;-82
2021/05/05 04:43:16;;;;;;;1.10;0.90;;;;;;;;;;4867666;29;20513;-81
2021/05/05 04:45:42;;;;;;;2.15;0.95;;;;;;;;;;4867715;29;20056;-82
2021/05/05 04:48:08;;;;;;;5.97;1.30;;;;;;;;;;4884897;29;20025;-82
2021/05/05 04:50:34;;;;;;;1.40;1.05;;;;;;;;;;4884450;29;20036;-82
2021/05/05 04:53:01;;;;;;;1.98;0.93;;;;;;;;;;4862861;29;20029;-82
2021/05/05 04:55:27;;;;;;;1.08;0.80;;;;;;;;;;4865177;29;20033;-84
2021/05/05 04:57:53;;;;;;;0.95;0.85;;;;;;;;;;4848142;29;20029;-78
2021/05/05 05:00:19;;;;;;;4.78;1.15;;;;;;;;;;4861406;29;20033;-73
2021/05/05 05:02:45;;;;;;;1.20;0.90;;;;;;;;;;4845268;29;20493;-73
2021/05/05 05:05:12;;;;;;;8.05;1.15;;;;;;;;;;4844734;29;20120;-73
2021/05/05 05:07:38;;;;;;;3.05;1.23;;;;;;;;;;4861602;29;20121;-74
2021/05/05 05:10:04;;;;;;;5.13;1.42;;;;;;;;;;4861482;29;20025;-74
2021/05/05 05:12:30;;;;;;;3.28;0.98;;;;;;;;;;4861530;29;20056;-74
2021/05/05 05:14:56;;;;;;;2.28;1.20;;;;;;;;;;4861275;29;20033;-74
2021/05/05 05:17:23;;;;;;;3.42;0.80;;;;;;;;;;4861731;29;20112;-74
2021/05/05 05:19:49;;;;;;;3.42;1.20;;;;;;;;;;4860801;29;20421;-74
2021/05/05 05:22:15;;;;;;;4.32;1.27;;;;;;;;;;4870728;29;20021;-74
2021/05/05 05:24:41;;;;;;;4.07;0.90;;;;;;;;;;4877121;29;20029;-74
2021/05/05 05:27:07;;;;;;;6.25;1.35;;;;;;;;;;4861148;29;20026;-74
2021/05/05 05:29:33;;;;;;;2.35;1.10;;;;;;;;;;4844411;29;20056;-74
2021/05/05 05:31:59;;;;;;;2.28;1.00;;;;;;;;;;4860871;29;20033;-74
2021/05/05 05:34:25;;;;;;;2.33;1.17;;;;;;;;;;4860968;29;20030;-73
2021/05/05 05:36:51;;;;;;;2.67;1.20;;;;;;;;;;4861396;29;20021;-73
2021/05/05 05:39:18;;;;;;;6.07;0.90;;;;;;;;;;4861076;29;20077;-73
2021/05/05 05:41:44;;;;;;;6.63;1.20;;;;;;;;;;4844121;29;20028;-74
2021/05/05 05:44:10;;;;;;;4.78;1.20;;;;;;;;;;4861152;29;20033;-74
2021/05/05 05:46:39;;;;;;;4.60;0.85;;;;;;;;;;4860969;29;20389;-74
2021/05/05 05:49:08;;;;;;;3.25;1.10;;;;;;;;;;4860959;29;20165;-74
2021/05/05 05:51:35;;;;;;;3.50;1.35;;;;;;;;;;4859940;29;20497;-74
2021/05/05 05:54:02;;;;;;;1.88;1.15;;;;;;;;;;4873356;29;20033;-74
2021/05/05 05:56:28;;;;;;;2.70;1.05;;;;;;;;;;4879187;29;20040;-74
2021/05/05 05:58:54;;;;;;;3.13;0.80;;;;;;;;;;4862602;29;20029;-74
2021/05/05 06:01:20;;;;;;;7.00;1.30;;;;;;;;;;4878698;29;20085;-73
2021/05/05 06:03:46;;;;;;;6.18;1.20;;;;;;;;;;4879175;29;20029;-73
2021/05/05 06:06:12;;;;;;;4.10;1.30;;;;;;;;;;4879388;29;20029;-73
2021/05/05 06:08:39;;;;;;;4.10;1.33;;;;;;;;;;4879211;29;20501;-73
2021/05/05 06:11:05;;;;;;;3.88;1.00;;;;;;;;;;4878943;29;20029;-73
2021/05/05 06:13:31;;;;;;;1.60;1.13;;;;;;;;;;4878637;29;20029;-73
2021/05/05 06:15:58;;;;;;;2.30;0.75;;;;;;;;;;4862371;29;20089;-74
2021/05/05 06:18:24;;;;;;;10.98;1.50;;;;;;;;;;4879032;29;20045;-73
2021/05/05 06:20:50;;;;;;;7.85;1.13;;;;;;;;;;4879104;29;20033;-73
2021/05/05 06:23:16;;;;;;;5.53;1.38;;;;;;;;;;4861088;29;20026;-73
2021/05/05 06:25:43;;;;;;;3.88;1.00;;;;;;;;;;4870422;29;20029;-73
2021/05/05 06:28:09;;;;;;;3.28;1.10;;;;;;;;;;4879325;29;20029;-74
2021/05/05 06:30:35;;;;;;;5.82;1.33;;;;;;;;;;4878839;29;20088;-73
2021/05/05 06:33:01;;;;;;;3.75;1.13;;;;;;;;;;4878789;29;20029;-73
2021/05/05 06:35:27;;;;;;;3.90;0.95;;;;;;;;;;4878891;29;20029;-74
2021/05/05 06:37:54;;;;;;;2.17;0.88;;;;;;;;;;4879057;29;20169;-74
2021/05/05 06:40:20;;;;;;;3.22;0.90;;;;;;;;;;4878578;29;20510;-73
2021/05/05 06:42:49;;;;;;;6.57;1.00;;;;;;;;;;4878992;29;20058;-73
2021/05/05 06:45:16;;;;;;;4.57;1.00;;;;;;;;;;4861858;29;20029;-74
2021/05/05 06:47:42;;;;;;;2.75;0.82;;;;;;;;;;4862331;29;20025;-74
2021/05/05 06:50:09;;;;;;;1.00;0.77;;;;;;;;;;4878831;29;20108;-73
2021/05/05 06:52:36;;;;;;;3.13;0.70;;;;;;;;;;4877359;29;20036;-73
2021/05/05 06:55:02;;;;;;;4.70;2.60;;;;;;;;;;4860057;29;20472;-73
2021/05/05 06:57:28;;;;;;;3.70;1.48;;;;;;;;;;4859735;29;20094;-73
2021/05/05 06:59:54;;;;;;;3.47;1.67;;;;;;;;;;4860209;29;20033;-73
2021/05/05 07:02:21;;;;;;;3.50;1.75;;;;;;;;;;4859454;29;20018;-73
2021/05/05 07:04:48;;;;;;;2.03;0.70;;;;;;;;;;4843670;29;20116;-73
2021/05/05 07:07:15;;;;;;;2.88;0.60;;;;;;;;;;4859880;29;20580;-73
2021/05/05 07:09:42;;;;;;;2.65;1.23;;;;;;;;;;4859879;29;20485;-73
2021/05/05 07:12:09;;;;;;;3.13;0.50;;;;;;;;;;4859575;29;20105;-73
2021/05/05 07:14:35;;;;;;;2.65;0.65;;;;;;;;;;4859945;29;20108;-73
2021/05/05 07:17:01;;;;;;;2.25;0.50;;;;;;;;;;4842347;29;20497;-73
2021/05/05 07:19:28;;;;;;;0.50;0.40;;;;;;;;;;4862657;29;20098;-73
2021/05/05 07:21:54;;;;;;;4.22;0.60;;;;;;;;;;4869054;29;20021;-73
2021/05/05 07:24:20;;;;;;;2.88;0.70;;;;;;;;;;4864473;29;20040;-73
2021/05/05 07:26:47;;;;;;;2.25;0.50;;;;;;;;;;4862961;29;20100;-73
2021/05/05 07:29:13;;;;;;;0.93;0.22;;;;;;;;;;4863036;29;20041;-73
2021/05/05 07:31:42;;;;;;;2.00;0.47;;;;;;;;;;4862305;29;20058;-73
2021/05/05 07:34:10;;;;;;;3.50;0.50;;;;;;;;;;4862886;29;20100;-73
2021/05/05 07:36:42;;;;;;;3.08;0.68;;;;;;;;;;4862684;29;20032;-73
2021/05/05 07:39:38;;;;;;;1.70;0.60;;;;;;;;;;4847095;29;20044;-73
2021/05/05 07:42:36;;;;;;;5.55;0.47;;;;;;;;;;4862181;29;20032;-73
2021/05/05 07:47:39;;;;;;;0.30;0.20;;;;;;;;;;4847122;29;20030;-72
2021/05/05 07:50:09;;;;;;;3.35;0.50;;;;;;;;;;4862777;29;20017;-72
2021/05/05 07:52:36;;;;;;;1.27;0.65;;;;;;;;;;4863717;29;20030;-72
2021/05/05 07:55:04;;;;;;;2.47;0.50;;;;;;;;;;4864411;29;20082;-72
2021/05/05 07:57:30;;;;;;;2.30;0.70;;;;;;;;;;4880720;29;20029;-72
2021/05/05 07:59:56;;;;;;;2.75;0.43;;;;;;;;;;4881063;29;20291;-72
2021/05/05 08:02:23;;;;;;;0.65;0.25;;;;;;;;;;4848486;29;20044;-72
2021/05/05 08:04:49;;;;;;;2.13;0.47;;;;;;;;;;4880997;29;20394;-72
2021/05/05 08:07:18;;;;;;;0.45;0.30;;;;;;;;;;4880404;29;20033;-72
2021/05/05 08:09:45;;;;;;;0.30;0.25;;;;;;;;;;4864133;29;20033;-72
2021/05/05 08:12:13;;;;;;;0.57;0.30;;;;;;;;;;4880414;29;20053;-72
2021/05/05 08:14:45;;;;;;;0.82;0.20;;;;;;;;;;4880704;29;20033;-72
2021/05/05 08:17:13;;;;;;;0.95;0.22;;;;;;;;;;4880494;29;20054;-72
2021/05/05 08:19:40;;;;;;;4.10;0.30;;;;;;;;;;4880593;29;20473;-72
2021/05/05 08:22:06;;;;;;;4.53;0.20;;;;;;;;;;4870602;29;20025;-72
2021/05/05 08:24:33;;;;;;;0.98;0.38;;;;;;;;;;4863038;29;20025;-72
2021/05/05 08:27:00;;;;;;;1.65;0.25;;;;;;;;;;4880083;29;20029;-72
2021/05/05 08:29:28;;;;;;;2.03;0.50;;;;;;;;;;4880181;29;20084;-72
2021/05/05 08:31:55;;;;;;;0.10;0.10;;;;;;;;;;4879991;29;20117;-72
2021/05/05 08:34:22;;;;;;;2.63;0.20;;;;;;;;;;4879732;29;20510;-72
2021/05/05 08:36:48;;;;;;;0.57;0.20;;;;;;;;;;4880214;29;20165;-72
2021/05/05 08:39:15;;;;;;;1.65;0.20;;;;;;;;;;4863470;29;20040;-72
2021/05/05 08:41:42;;;;;;;0.55;0.30;;;;;;;;;;4879806;29;20025;-72
2021/05/05 08:44:09;;;;;;;1.65;0.17;;;;;;;;;;4879739;29;20042;-73
2021/05/05 08:46:37;;;;;;;2.13;0.40;;;;;;;;;;4880025;29;20105;-72
2021/05/05 08:49:04;;;;;;;1.80;1.02;;;;;;;;;;4879617;29;20039;-72
2021/05/05 08:51:30;;;;;;;4.80;0.50;;;;;;;;;;4862621;29;20032;-72
2021/05/05 08:53:57;;;;;;;0.63;0.20;;;;;;;;;;4867849;29;20031;-73
2021/05/05 08:56:23;;;;;;;1.98;0.30;;;;;;;;;;4861624;29;20029;-72
2021/05/05 08:58:50;;;;;;;3.53;0.47;;;;;;;;;;4861132;29;20493;-72
2021/05/05 09:01:16;;;;;;;3.47;0.60;;;;;;;;;;4844742;29;20333;-72
2021/05/05 09:03:43;;;;;;;1.38;0.28;;;;;;;;;;4860731;29;20029;-72
2021/05/05 09:06:10;;;;;;;3.20;0.57;;;;;;;;;;4861487;29;20052;-72
2021/05/05 09:08:47;;;;;;;9.23;0.65;;;;;;;;;;4860821;29;20041;-72
2021/05/05 09:11:13;;;;;;;4.95;0.47;;;;;;;;;;4844371;29;20504;-73
2021/05/05 09:13:43;;;;;;;5.00;0.98;;;;;;;;;;4860972;29;20052;-72
2021/05/05 09:16:10;;;;;;;6.00;0.90;;;;;;;;;;4879843;29;20112;-72
2021/05/05 09:18:56;;;;;;;5.20;0.68;;;;;;;;;;4875888;29;20068;-72
2021/05/05 09:21:38;;;;;;;5.32;2.08;;;;;;;;;;4874869;29;20032;-72
2021/05/05 09:24:25;;;;;;;6.55;0.68;;;;;;;;;;4860687;29;20044;-72
2021/05/05 09:26:53;;;;;;;4.10;0.50;;;;;;;;;;4844009;29;20030;-72
2021/05/05 09:29:21;;;;;;;3.72;0.90;;;;;;;;;;4860088;29;20039;-72
2021/05/05 09:31:48;;;;;;;5.53;0.80;;;;;;;;;;4860170;29;20029;-73
2021/05/05 09:34:14;;;;;;;2.30;0.30;;;;;;;;;;4860447;29;20040;-73
2021/05/05 09:36:41;;;;;;;2.22;0.22;;;;;;;;;;4860999;29;20374;-72
2021/05/05 09:39:09;;;;;;;4.40;0.30;;;;;;;;;;4859326;29;20033;-72
2021/05/05 09:41:36;;;;;;;2.83;0.25;;;;;;;;;;4860539;29;20127;-72
2021/05/05 09:44:03;;;;;;;0.35;0.17;;;;;;;;;;4860516;29;20112;-72
2021/05/05 09:46:30;;;;;;;4.57;0.28;;;;;;;;;;4860387;29;20033;-72
2021/05/05 09:49:15;;;;;;;3.45;0.30;;;;;;;;;;4860852;29;20405;-72
2021/05/05 09:51:51;;;;;;;2.35;0.40;;;;;;;;;;4860463;29;20037;-72
2021/05/05 09:54:24;;;;;;;0.20;0.20;;;;;;;;;;4858218;29;20473;-72
2021/05/05 09:56:50;;;;;;;0.95;0.30;;;;;;;;;;4879452;29;20055;-72
2021/05/05 09:59:17;;;;;;;3.08;0.35;;;;;;;;;;4878997;29;20065;-72
2021/05/05 10:01:58;;;;;;;0.47;0.22;;;;;;;;;;4878510;29;20097;-72
2021/05/05 10:04:25;;;;;;;1.25;0.40;;;;;;;;;;4878665;29;20108;-72
2021/05/05 10:06:55;;;;;;;4.15;0.47;;;;;;;;;;4877321;29;20021;-72
2021/05/05 10:09:23;;;;;;;0.80;0.43;;;;;;;;;;4874126;29;20037;-72
2021/05/05 10:11:50;;;;;;;4.68;2.00;;;;;;;;;;4867182;29;20183;-72
2021/05/05 10:14:17;;;;;;;1.67;0.50;;;;;;;;;;4878863;29;20032;-72
2021/05/05 10:16:44;;;;;;;1.90;0.57;;;;;;;;;;4877965;29;20029;-72
2021/05/05 10:19:21;;;;;;;2.90;0.43;;;;;;;;;;4877996;29;20053;-72
2021/05/05 10:22:00;;;;;;;2.13;0.30;;;;;;;;;;4871159;29;20489;-72
2021/05/05 10:24:27;;;;;;;1.30;0.35;;;;;;;;;;4865696;29;20402;-73
2021/05/05 10:26:54;;;;;;;3.38;0.50;;;;;;;;;;4877827;29;20063;-73
2021/05/05 10:29:20;;;;;;;1.00;0.40;;;;;;;;;;4876181;29;20065;-73
2021/05/05 10:31:51;;;;;;;1.60;0.60;;;;;;;;;;4878393;29;20048;-73
2021/05/05 10:34:22;;;;;;;2.15;0.40;;;;;;;;;;4878549;29;20103;-74
2021/05/05 10:36:52;;;;;;;5.70;0.65;;;;;;;;;;4878978;29;20041;-73
2021/05/05 10:39:18;;;;;;;4.80;0.77;;;;;;;;;;4878409;29;20488;-73
2021/05/05 10:42:05;;;;;;;2.53;0.50;;;;;;;;;;4877253;29;20040;-73
2021/05/05 10:44:40;;;;;;;6.05;1.17;;;;;;;;;;4872459;29;20041;-75
2021/05/05 10:47:14;;;;;;;2.70;0.65;;;;;;;;;;4878394;29;20085;-74
2021/05/05 10:49:59;;;;;;;4.72;0.65;;;;;;;;;;4878989;29;20404;-74
2021/05/05 10:52:25;;;;;;;4.97;0.50;;;;;;;;;;4882382;29;20120;-74
2021/05/05 10:54:53;;;;;;;1.45;0.70;;;;;;;;;;4882176;29;20029;-74
2021/05/05 10:57:19;;;;;;;2.17;0.50;;;;;;;;;;4855042;29;20067;-74
2021/05/05 11:00:10;;;;;;;4.63;0.90;;;;;;;;;;4853544;29;20028;-74
2021/05/05 11:02:47;;;;;;;7.32;0.70;;;;;;;;;;4868281;29;20128;-74
2021/05/05 11:05:13;;;;;;;3.95;0.98;;;;;;;;;;4863635;29;20018;-74
2021/05/05 11:07:59;;;;;;;3.22;0.45;;;;;;;;;;4864168;29;20061;-74
2021/05/05 11:10:37;;;;;;;4.45;1.00;;;;;;;;;;4847291;29;20050;-75
2021/05/05 11:13:18;;;;;;;4.40;0.63;;;;;;;;;;4847634;29;20563;-75
2021/05/05 11:15:45;;;;;;;1.58;0.88;;;;;;;;;;4863637;29;20065;-74
2021/05/05 11:18:27;;;;;;;3.38;0.80;;;;;;;;;;4863293;29;20040;-74
2021/05/05 11:20:58;;;;;;;2.67;0.50;;;;;;;;;;4876179;29;20068;-74
2021/05/05 11:23:34;;;;;;;2.13;0.70;;;;;;;;;;4879855;29;20033;-74
2021/05/05 11:26:16;;;;;;;2.20;0.68;;;;;;;;;;4866964;29;20029;-75
2021/05/05 11:28:57;;;;;;;3.78;0.73;;;;;;;;;;4864852;29;20080;-75
2021/05/05 11:31:44;;;;;;;6.72;0.65;;;;;;;;;;4880984;29;20092;-74
2021/05/05 11:34:10;;;;;;;4.80;0.73;;;;;;;;;;4837785;29;20505;-74
2021/05/05 11:36:36;;;;;;;2.60;0.63;;;;;;;;;;4878127;29;20584;-73
2021/05/05 11:39:05;;;;;;;4.18;0.82;;;;;;;;;;4873995;29;20025;-73
2021/05/05 11:41:32;;;;;;;4.65;0.80;;;;;;;;;;4881025;29;20051;-74
2021/05/05 11:43:58;;;;;;;5.65;0.98;;;;;;;;;;4881554;29;20376;-73
2021/05/05 11:46:25;;;;;;;4.45;1.17;;;;;;;;;;4866967;29;20113;-73
2021/05/05 11:48:52;;;;;;;5.53;0.85;;;;;;;;;;4873355;29;20040;-73
2021/05/05 11:51:20;;;;;;;4.65;0.90;;;;;;;;;;4881163;29;20049;-73
2021/05/05 11:53:46;;;;;;;3.53;0.80;;;;;;;;;;4852040;29;20029;-73
2021/05/05 11:56:16;;;;;;;5.88;0.80;;;;;;;;;;4868071;29;20029;-73
2021/05/05 11:58:42;;;;;;;0.98;0.50;;;;;;;;;;4872307;29;20032;-74
2021/05/05 12:01:08;;;;;;;3.38;1.83;;;;;;;;;;4872721;29;20441;-74
2021/05/05 12:03:34;;;;;;;2.28;1.33;;;;;;;;;;4867093;29;20032;-74
2021/05/05 12:06:00;;;;;;;3.60;0.80;;;;;;;;;;4867967;29;20029;-73
2021/05/05 12:08:28;;;;;;;2.25;0.60;;;;;;;;;;4872230;29;20029;-73
2021/05/05 12:10:56;;;;;;;1.42;0.75;;;;;;;;;;4873925;29;20037;-73
2021/05/05 12:13:26;;;;;;;3.40;0.60;;;;;;;;;;4875607;29;20029;-74
2021/05/05 12:16:04;;;;;;;4.00;1.27;;;;;;;;;;4870755;29;20532;-73
2021/05/05 12:18:35;;;;;;;3.22;0.50;;;;;;;;;;4851342;29;20069;-73
2021/05/05 12:21:12;;;;;;;4.15;0.70;;;;;;;;;;4867173;29;20021;-73
2021/05/05 12:23:38;;;;;;;2.42;0.57;;;;;;;;;;4848157;29;20029;-74
2021/05/05 12:26:13;;;;;;;4.05;0.60;;;;;;;;;;4855395;29;20062;-73
2021/05/05 12:28:40;;;;;;;3.63;0.70;;;;;;;;;;4871248;29;20064;-74
2021/05/05 12:31:06;;;;;;;1.98;0.60;;;;;;;;;;4864202;29;20026;-74
2021/05/05 12:33:32;;;;;;;3.08;0.60;;;;;;;;;;4869442;29;20039;-74
2021/05/05 12:35:59;;;;;;;2.10;0.40;;;;;;;;;;4867936;29;20108;-74
2021/05/05 12:38:25;;;;;;;4.28;0.68;;;;;;;;;;4869003;29;20112;-74
2021/05/05 12:40:59;;;;;;;3.05;1.40;;;;;;;;;;4877464;29;20025;-74
2021/05/05 12:43:27;;;;;;;2.00;0.70;;;;;;;;;;4878011;29;20071;-74
2021/05/05 12:45:54;;;;;;;2.35;0.70;;;;;;;;;;4873071;29;20078;-74
2021/05/05 12:48:21;;;;;;;1.35;0.60;;;;;;;;;;4842674;29;20037;-74
2021/05/05 12:50:47;;;;;;;1.55;0.68;;;;;;;;;;4872240;29;20025;-74
2021/05/05 12:53:14;;;;;;;1.27;0.70;;;;;;;;;;4876998;29;20131;-74
2021/05/05 12:55:41;;;;;;;2.17;0.75;;;;;;;;;;4872511;29;20040;-73
2021/05/05 12:58:15;;;;;;;3.28;0.70;;;;;;;;;;4874731;29;20065;-73
2021/05/05 13:00:45;;;;;;;2.25;0.82;;;;;;;;;;4878229;29;20052;-73
2021/05/05 13:03:12;;;;;;;3.63;0.70;;;;;;;;;;4861217;29;20025;-73
2021/05/05 13:05:54;;;;;;;2.63;0.70;;;;;;;;;;4873963;29;20549;-73
2021/05/05 13:08:29;;;;;;;1.93;0.60;;;;;;;;;;4842862;29;20091;-73
2021/05/05 13:10:56;;;;;;;3.72;0.68;;;;;;;;;;4867510;29;20062;-73
2021/05/05 13:13:26;;;;;;;3.65;0.85;;;;;;;;;;4869254;29;20029;-73
2021/05/05 13:19:17;;;;;;;3.22;0.88;;;;;;;;;;4870001;29;20101;-73
2021/05/05 13:32:39;;;;;;;1.33;0.60;;;;;;;;;;4874019;29;20085;-74
2021/05/05 13:35:20;;;;;;;1.98;0.90;;;;;;;;;;4867460;29;20033;-74
2021/05/05 13:37:56;;;;;;;4.18;0.73;;;;;;;;;;4870244;29;20037;-73
2021/05/05 13:40:23;;;;;;;1.58;0.70;;;;;;;;;;4866846;29;20025;-73
2021/05/05 13:42:51;;;;;;;2.20;0.65;;;;;;;;;;4871831;29;20025;-73
2021/05/05 13:45:18;;;;;;;3.53;0.85;;;;;;;;;;4860765;29;20381;-72
2021/05/05 13:48:05;;;;;;;2.47;0.73;;;;;;;;;;4872590;29;20104;-73
2021/05/05 13:50:32;;;;;;;1.95;0.65;;;;;;;;;;4863863;29;20029;-73
2021/05/05 13:52:58;;;;;;;1.65;0.60;;;;;;;;;;4865499;29;20373;-74
2021/05/05 13:55:24;;;;;;;3.40;0.70;;;;;;;;;;4868275;29;20056;-73
2021/05/05 13:57:50;;;;;;;3.38;0.70;;;;;;;;;;4864216;29;20037;-74
2021/05/05 14:00:17;;;;;;;1.65;0.80;;;;;;;;;;4845358;29;20386;-74
2021/05/05 14:02:43;;;;;;;3.35;0.73;;;;;;;;;;4870006;29;20040;-73
2021/05/05 14:05:12;;;;;;;2.17;1.00;;;;;;;;;;4856579;29;20025;-74
2021/05/05 14:07:39;;;;;;;2.33;0.80;;;;;;;;;;4870406;29;20022;-73
2021/05/05 14:10:07;;;;;;;2.20;0.80;;;;;;;;;;4866284;29;20049;-73
2021/05/05 14:12:33;;;;;;;3.38;0.60;;;;;;;;;;4869517;29;20105;-73
2021/05/05 14:15:00;;;;;;;3.95;1.48;;;;;;;;;;4877202;29;20441;-73
2021/05/05 14:17:30;;;;;;;3.53;0.70;;;;;;;;;;4872788;29;20037;-73
2021/05/05 14:19:57;;;;;;;5.88;1.05;;;;;;;;;;4871372;29;20409;-73
2021/05/05 14:22:23;;;;;;;4.40;0.80;;;;;;;;;;4867921;29;20035;-74
2021/05/05 14:24:49;;;;;;;3.80;0.85;;;;;;;;;;4875556;29;20035;-73
2021/05/05 14:27:15;;;;;;;1.50;0.70;;;;;;;;;;4880945;29;20668;-73
2021/05/05 14:29:41;;;;;;;2.45;0.93;;;;;;;;;;4864743;29;20025;-73
2021/05/05 14:32:07;;;;;;;3.72;0.95;;;;;;;;;;4873599;29;20034;-73
2021/05/05 14:34:33;;;;;;;4.25;0.88;;;;;;;;;;4872621;29;20037;-72
2021/05/05 14:37:00;;;;;;;7.28;1.10;;;;;;;;;;4881123;29;20021;-73
2021/05/05 14:39:26;;;;;;;3.70;0.95;;;;;;;;;;4870986;29;20025;-72
2021/05/05 14:41:52;;;;;;;2.78;1.88;;;;;;;;;;4867350;29;20360;-73
2021/05/05 14:44:24;;;;;;;8.27;0.93;;;;;;;;;;4855807;29;20025;-73
2021/05/05 14:49:36;;;;;;;1.98;1.25;;;;;;;;;;4872580;29;20052;-73
2021/05/05 14:52:03;;;;;;;6.43;0.90;;;;;;;;;;4868745;29;20021;-73
2021/05/05 14:54:29;;;;;;;5.85;1.08;;;;;;;;;;4877925;29;20441;-73
2021/05/05 14:56:55;;;;;;;6.22;1.13;;;;;;;;;;4867760;29;20090;-73
2021/05/05 14:59:21;;;;;;;7.38;1.25;;;;;;;;;;4862901;29;20465;-73
2021/05/05 15:01:47;;;;;;;3.65;1.17;;;;;;;;;;4857403;29;20059;-73
2021/05/05 15:04:14;;;;;;;3.63;0.73;;;;;;;;;;4872777;29;20029;-73
2021/05/05 15:06:46;;;;;;;5.68;1.67;;;;;;;;;;4876956;29;20048;-73
2021/05/05 15:15:00;;;;;;;3.03;0.75;;;;;;;;;;4875962;29;20036;-73